createdAt,value
2023-02-15T00:01:01.961Z,0
2023-02-15T00:02:42.341Z,0
2023-02-15T00:04:22.711Z,0
2023-02-15T00:06:03.366Z,0
2023-02-15T00:07:43.394Z,0
2023-02-15T00:09:23.816Z,0
2023-02-15T00:11:04.184Z,0
2023-02-15T00:12:44.554Z,0
2023-02-15T00:14:24.883Z,0
2023-02-15T00:16:05.244Z,0
2023-02-15T00:17:45.460Z,0
2023-02-15T00:19:25.888Z,0
2023-02-15T00:21:06.268Z,0
2023-02-15T00:22:46.651Z,0
2023-02-15T00:24:27.172Z,0
2023-02-15T00:26:07.502Z,0
2023-02-15T00:27:47.995Z,0
2023-02-15T00:29:28.377Z,0
2023-02-15T00:31:08.877Z,0
2023-02-15T00:32:49.195Z,0
2023-02-15T00:34:29.606Z,0
2023-02-15T00:36:10.015Z,0
2023-02-15T00:37:50.549Z,0
2023-02-15T00:39:31.045Z,0
2023-02-15T00:41:11.500Z,0
2023-02-15T00:42:51.965Z,0
2023-02-15T00:44:32.261Z,0
2023-02-15T00:46:12.609Z,0
2023-02-15T00:47:52.945Z,0
2023-02-15T00:49:33.470Z,0
2023-02-15T00:51:13.965Z,0
2023-02-15T00:52:54.464Z,0
2023-02-15T00:54:34.934Z,0
2023-02-15T00:56:15.394Z,0
2023-02-15T00:57:55.905Z,0
2023-02-15T00:59:36.386Z,0
2023-02-15T01:01:16.918Z,0
2023-02-15T01:02:57.417Z,0
2023-02-15T01:04:37.858Z,0
2023-02-15T01:06:18.141Z,0
2023-02-15T01:07:58.679Z,0
2023-02-15T01:09:39.182Z,0
2023-02-15T01:11:19.687Z,0
2023-02-15T01:13:00.223Z,0
2023-02-15T01:14:40.670Z,0
2023-02-15T01:16:21.237Z,0
2023-02-15T01:18:01.686Z,0
2023-02-15T01:19:42.129Z,0
2023-02-15T01:21:22.483Z,0
2023-02-15T01:23:03.001Z,0
2023-02-15T01:24:43.529Z,0
2023-02-15T01:28:04.561Z,0
2023-02-15T01:29:45.099Z,0
2023-02-15T01:31:25.871Z,0
2023-02-15T01:33:06.210Z,0
2023-02-15T01:34:46.682Z,0
2023-02-15T01:36:27.165Z,0
2023-02-15T01:38:07.636Z,0
2023-02-15T01:39:48.081Z,0
2023-02-15T01:41:28.510Z,0
2023-02-15T01:43:08.966Z,0
2023-02-15T01:44:49.264Z,0
2023-02-15T01:46:29.804Z,0
2023-02-15T01:48:10.226Z,0
2023-02-15T01:49:50.733Z,0
2023-02-15T01:51:31.172Z,0
2023-02-15T01:53:11.673Z,0
2023-02-15T01:54:52.141Z,0
2023-02-15T01:56:32.581Z,0
2023-02-15T01:58:13.067Z,0
2023-02-15T01:59:53.526Z,0
2023-02-15T02:01:34.062Z,0
2023-02-15T02:03:14.505Z,0
2023-02-15T02:04:55.000Z,0
2023-02-15T02:06:35.400Z,0
2023-02-15T02:08:15.770Z,0
2023-02-15T02:09:56.103Z,0
2023-02-15T02:11:36.367Z,0
2023-02-15T02:13:16.813Z,0
2023-02-15T02:14:57.311Z,0
2023-02-15T02:16:37.736Z,0
2023-02-15T02:18:18.132Z,0
2023-02-15T02:19:58.619Z,0
2023-02-15T02:21:39.119Z,0
2023-02-15T02:23:19.653Z,0
2023-02-15T02:25:00.159Z,0
2023-02-15T02:26:40.588Z,0
2023-02-15T02:28:21.029Z,0
2023-02-15T02:30:01.516Z,0
2023-02-15T02:31:42.081Z,0
2023-02-15T02:33:22.413Z,0
2023-02-15T02:35:02.700Z,0
2023-02-15T02:38:23.470Z,0
2023-02-15T02:40:03.947Z,0
2023-02-15T02:41:44.412Z,0
2023-02-15T02:43:24.952Z,0
2023-02-15T02:45:05.347Z,0
2023-02-15T02:46:45.834Z,0
2023-02-15T02:48:26.284Z,0
2023-02-15T02:50:06.721Z,0
2023-02-15T02:51:47.186Z,0
2023-02-15T02:53:27.670Z,0
2023-02-15T02:55:08.044Z,0
2023-02-15T02:56:48.514Z,0
2023-02-15T02:58:28.930Z,0
2023-02-15T03:00:09.320Z,0
2023-02-15T03:01:49.894Z,0
2023-02-15T03:03:30.334Z,0
2023-02-15T03:05:10.811Z,0
2023-02-15T03:06:51.288Z,0
2023-02-15T03:08:31.759Z,0
2023-02-15T03:10:12.133Z,0
2023-02-15T03:11:52.559Z,0
2023-02-15T03:13:33.047Z,0
2023-02-15T03:15:13.493Z,0
2023-02-15T03:16:53.964Z,0
2023-02-15T03:18:34.551Z,0
2023-02-15T03:20:14.830Z,0
2023-02-15T03:21:55.125Z,0
2023-02-15T03:23:35.617Z,0
2023-02-15T03:25:16.181Z,0
2023-02-15T03:26:56.609Z,0
2023-02-15T03:28:37.119Z,0
2023-02-15T03:30:17.593Z,0
2023-02-15T03:31:58.219Z,0
2023-02-15T03:33:38.618Z,0
2023-02-15T03:35:19.060Z,0
2023-02-15T03:36:59.543Z,0
2023-02-15T03:38:40.064Z,0
2023-02-15T03:40:20.567Z,0
2023-02-15T03:42:00.929Z,0
2023-02-15T03:43:41.250Z,0
2023-02-15T03:47:02.241Z,0
2023-02-15T03:48:42.759Z,0
2023-02-15T03:50:23.235Z,0
2023-02-15T03:52:03.761Z,0
2023-02-15T03:53:44.258Z,0
2023-02-15T03:55:24.714Z,0
2023-02-15T03:57:05.176Z,0
2023-02-15T03:58:45.652Z,0
2023-02-15T04:00:26.162Z,0
2023-02-15T04:02:06.661Z,0
2023-02-15T04:03:47.013Z,0
2023-02-15T04:05:27.442Z,0
2023-02-15T04:07:07.948Z,0
2023-02-15T04:08:48.413Z,0
2023-02-15T04:10:28.898Z,0
2023-02-15T04:12:09.401Z,0
2023-02-15T04:13:49.950Z,0
2023-02-15T04:15:30.405Z,0
2023-02-15T04:17:11.042Z,0
2023-02-15T04:18:51.324Z,0
2023-02-15T04:20:31.798Z,0
2023-02-15T04:22:12.323Z,0
2023-02-15T04:23:52.680Z,0
2023-02-15T04:25:33.007Z,0
2023-02-15T04:27:13.297Z,0
2023-02-15T04:28:53.808Z,0
2023-02-15T04:30:34.282Z,0
2023-02-15T04:32:14.869Z,0
2023-02-15T04:33:55.307Z,0
2023-02-15T04:35:35.844Z,0
2023-02-15T04:37:16.367Z,0
2023-02-15T04:38:56.859Z,0
2023-02-15T04:40:37.268Z,0
2023-02-15T04:42:17.774Z,0
2023-02-15T04:43:58.246Z,0
2023-02-15T04:45:38.812Z,0
2023-02-15T04:47:19.171Z,0
2023-02-15T04:48:59.672Z,0
2023-02-15T04:50:40.149Z,0
2023-02-15T04:52:20.539Z,0
2023-02-15T04:54:01.033Z,0
2023-02-15T04:55:41.528Z,0
2023-02-15T04:57:22.015Z,0
2023-02-15T04:59:02.458Z,0
2023-02-15T05:00:42.937Z,0
2023-02-15T05:02:23.242Z,0
2023-02-15T05:04:03.727Z,0
2023-02-15T05:05:44.127Z,0
2023-02-15T05:07:24.427Z,0
2023-02-15T05:09:04.733Z,0
2023-02-15T05:10:45.098Z,0
2023-02-15T05:12:25.506Z,0
2023-02-15T05:14:05.983Z,0
2023-02-15T05:15:46.447Z,0
2023-02-15T05:17:26.984Z,0
2023-02-15T05:19:07.511Z,0
2023-02-15T05:20:48.018Z,0
2023-02-15T05:22:28.535Z,0
2023-02-15T05:24:09.045Z,0
2023-02-15T05:25:49.462Z,0
2023-02-15T05:27:29.940Z,0
2023-02-15T05:29:10.336Z,0
2023-02-15T05:30:50.904Z,0
2023-02-15T05:32:31.414Z,0
2023-02-15T05:34:11.610Z,0
2023-02-15T05:35:52.132Z,0
2023-02-15T05:37:32.547Z,0
2023-02-15T05:39:13.365Z,0
2023-02-15T05:40:53.492Z,0
2023-02-15T05:42:33.909Z,0
2023-02-15T05:44:14.405Z,0
2023-02-15T05:45:54.841Z,0
2023-02-15T05:47:35.225Z,0
2023-02-15T05:49:15.736Z,0
2023-02-15T05:50:56.208Z,0
2023-02-15T05:52:36.617Z,0
2023-02-15T05:54:17.127Z,0
2023-02-15T05:55:57.545Z,0
2023-02-15T05:57:38.083Z,0
2023-02-15T05:59:18.550Z,0
2023-02-15T06:00:59.049Z,0
2023-02-15T06:02:39.540Z,0
2023-02-15T06:04:20.061Z,0
2023-02-15T06:06:00.925Z,0
2023-02-15T06:07:40.882Z,0
2023-02-15T06:09:21.323Z,0
2023-02-15T06:11:01.834Z,0
2023-02-15T06:12:42.233Z,0
2023-02-15T06:14:22.676Z,0
2023-02-15T06:16:03.506Z,0
2023-02-15T06:17:43.537Z,0
2023-02-15T06:19:23.967Z,0
2023-02-15T06:21:04.527Z,0
2023-02-15T06:22:44.926Z,0
2023-02-15T06:24:25.547Z,0
2023-02-15T06:26:05.958Z,0
2023-02-15T06:27:46.661Z,0
2023-02-15T06:29:26.897Z,0
2023-02-15T06:31:07.526Z,0
2023-02-15T06:32:47.849Z,0
2023-02-15T06:34:28.237Z,0
2023-02-15T06:36:08.736Z,0
2023-02-15T06:37:49.250Z,0
2023-02-15T06:39:29.690Z,0
2023-02-15T06:41:10.223Z,0
2023-02-15T06:42:50.822Z,0
2023-02-15T06:44:31.194Z,0
2023-02-15T06:46:11.884Z,0
2023-02-15T06:47:52.199Z,0
2023-02-15T06:49:32.648Z,0
2023-02-15T06:51:13.142Z,0
2023-02-15T06:52:53.511Z,0
2023-02-15T06:54:33.836Z,0
2023-02-15T06:56:14.331Z,0
2023-02-15T06:57:54.461Z,0
2023-02-15T06:59:34.781Z,0
2023-02-15T07:01:15.261Z,0
2023-02-15T07:02:55.760Z,1
2023-02-15T07:04:36.273Z,1
2023-02-15T07:06:16.652Z,2
2023-02-15T07:07:57.240Z,1
2023-02-15T07:09:37.657Z,0
2023-02-15T07:11:18.124Z,1
2023-02-15T07:12:58.670Z,1
2023-02-15T07:14:39.092Z,1
2023-02-15T07:16:19.636Z,1
2023-02-15T07:18:00.158Z,1
2023-02-15T07:19:40.713Z,1
2023-02-15T07:21:21.242Z,1
2023-02-15T07:23:01.702Z,1
2023-02-15T07:24:42.185Z,1
2023-02-15T07:26:22.633Z,2
2023-02-15T07:28:03.082Z,2
2023-02-15T07:29:43.587Z,2
2023-02-15T07:31:24.071Z,2
2023-02-15T07:33:05.646Z,2
2023-02-15T07:34:45.094Z,2
2023-02-15T07:36:25.482Z,2
2023-02-15T07:38:05.800Z,2
2023-02-15T07:41:26.716Z,2
2023-02-15T07:43:06.953Z,2
2023-02-15T07:44:47.467Z,3
2023-02-15T07:46:28.088Z,3
2023-02-15T07:48:08.463Z,3
2023-02-15T07:49:48.939Z,3
2023-02-15T07:51:29.453Z,3
2023-02-15T07:53:09.898Z,3
2023-02-15T07:54:50.397Z,3
2023-02-15T07:56:33.272Z,3
2023-02-15T07:58:11.389Z,3
2023-02-15T07:59:51.713Z,3
2023-02-15T08:01:32.232Z,4
2023-02-15T08:03:12.916Z,4
2023-02-15T08:04:53.142Z,4
2023-02-15T08:06:33.673Z,4
2023-02-15T08:08:14.200Z,4
2023-02-15T08:09:54.639Z,5
2023-02-15T08:11:35.164Z,4
2023-02-15T08:13:15.701Z,5
2023-02-15T08:14:56.164Z,5
2023-02-15T08:16:36.794Z,5
2023-02-15T08:18:17.033Z,6
2023-02-15T08:19:57.466Z,6
2023-02-15T08:21:38.231Z,6
2023-02-15T08:23:18.546Z,6
2023-02-15T08:24:59.032Z,6
2023-02-15T08:26:41.899Z,7
2023-02-15T08:28:19.865Z,7
2023-02-15T08:30:00.413Z,7
2023-02-15T08:31:41.038Z,7
2023-02-15T08:33:21.350Z,7
2023-02-15T08:35:01.934Z,7
2023-02-15T08:36:42.324Z,7
2023-02-15T08:38:22.756Z,7
2023-02-15T08:40:03.344Z,7
2023-02-15T08:41:43.833Z,8
2023-02-15T08:43:24.360Z,8
2023-02-15T08:45:04.891Z,7
2023-02-15T08:46:45.186Z,8
2023-02-15T08:48:25.737Z,8
2023-02-15T08:50:06.229Z,8
2023-02-15T08:51:46.698Z,7
2023-02-15T08:53:30.254Z,8
2023-02-15T08:55:07.534Z,8
2023-02-15T08:56:47.943Z,8
2023-02-15T08:58:28.382Z,8
2023-02-15T09:00:08.871Z,9
2023-02-15T09:01:49.451Z,9
2023-02-15T09:03:29.761Z,9
2023-02-15T09:05:10.328Z,9
2023-02-15T09:06:50.783Z,9
2023-02-15T09:08:31.255Z,9
2023-02-15T09:10:11.687Z,9
2023-02-15T09:11:57.676Z,10
2023-02-15T09:13:32.711Z,10
2023-02-15T09:15:13.157Z,10
2023-02-15T09:16:53.633Z,9
2023-02-15T09:18:34.145Z,9
2023-02-15T09:20:14.589Z,10
2023-02-15T09:21:55.134Z,11
2023-02-15T09:23:35.554Z,11
2023-02-15T09:25:15.960Z,10
2023-02-15T09:26:56.315Z,11
2023-02-15T09:28:36.713Z,11
2023-02-15T09:30:17.363Z,11
2023-02-15T09:31:57.752Z,12
2023-02-15T09:33:38.197Z,12
2023-02-15T09:35:18.654Z,12
2023-02-15T09:36:59.131Z,12
2023-02-15T09:38:39.553Z,12
2023-02-15T09:40:20.001Z,13
2023-02-15T09:42:00.470Z,13
2023-02-15T09:43:40.914Z,12
2023-02-15T09:45:21.378Z,12
2023-02-15T09:47:01.850Z,12
2023-02-15T09:48:42.177Z,13
2023-02-15T09:50:22.451Z,13
2023-02-15T09:52:02.756Z,14
2023-02-15T09:53:43.015Z,14
2023-02-15T09:55:23.504Z,14
2023-02-15T09:57:03.932Z,14
2023-02-15T09:58:44.498Z,13
2023-02-15T10:00:24.905Z,13
2023-02-15T10:02:05.425Z,14
2023-02-15T10:03:45.897Z,14
2023-02-15T10:05:26.332Z,14
2023-02-15T10:07:06.729Z,15
2023-02-15T10:08:47.181Z,14
2023-02-15T10:10:27.743Z,14
2023-02-15T10:12:08.180Z,13
2023-02-15T10:13:48.596Z,15
2023-02-15T10:15:28.896Z,15
2023-02-15T10:17:09.397Z,15
2023-02-15T10:18:49.824Z,16
2023-02-15T10:20:30.229Z,16
2023-02-15T10:22:10.740Z,17
2023-02-15T10:23:51.273Z,17
2023-02-15T10:25:31.798Z,16
2023-02-15T10:27:12.186Z,17
2023-02-15T10:28:52.627Z,17
2023-02-15T10:30:33.122Z,18
2023-02-15T10:32:13.735Z,17
2023-02-15T10:33:53.956Z,17
2023-02-15T10:35:34.392Z,17
2023-02-15T10:37:14.754Z,17
2023-02-15T10:38:55.250Z,16
2023-02-15T10:40:35.694Z,16
2023-02-15T10:42:16.079Z,16
2023-02-15T10:43:56.552Z,17
2023-02-15T10:45:36.980Z,17
2023-02-15T10:47:17.486Z,19
2023-02-15T10:48:57.948Z,17
2023-02-15T10:50:38.345Z,18
2023-02-15T10:52:18.934Z,18
2023-02-15T10:53:59.235Z,18
2023-02-15T10:55:39.699Z,19
2023-02-15T10:57:20.162Z,19
2023-02-15T10:59:00.619Z,19
2023-02-15T11:00:40.939Z,20
2023-02-15T11:02:21.438Z,21
2023-02-15T11:04:01.846Z,21
2023-02-15T11:07:22.751Z,21
2023-02-15T11:09:03.169Z,21
2023-02-15T11:10:43.540Z,22
2023-02-15T11:12:23.973Z,21
2023-02-15T11:14:04.433Z,21
2023-02-15T11:15:44.997Z,22
2023-02-15T11:17:25.345Z,23
2023-02-15T11:19:05.876Z,23
2023-02-15T11:20:46.292Z,23
2023-02-15T11:22:26.703Z,22
2023-02-15T11:24:07.252Z,23
2023-02-15T11:25:47.781Z,23
2023-02-15T11:27:28.264Z,26
2023-02-15T11:29:08.652Z,27
2023-02-15T11:30:49.275Z,26
2023-02-15T11:32:29.657Z,26
2023-02-15T11:34:10.108Z,25
2023-02-15T11:35:50.611Z,27
2023-02-15T11:37:31.075Z,29
2023-02-15T11:39:11.558Z,31
2023-02-15T11:40:52.214Z,31
2023-02-15T11:42:32.342Z,29
2023-02-15T11:44:12.941Z,31
2023-02-15T11:45:53.448Z,29
2023-02-15T11:47:33.778Z,31
2023-02-15T11:49:14.242Z,36
2023-02-15T11:50:54.657Z,32
2023-02-15T11:52:35.131Z,33
2023-02-15T11:54:15.810Z,34
2023-02-15T11:55:56.156Z,34
2023-02-15T11:59:17.037Z,34
2023-02-15T12:00:57.486Z,36
2023-02-15T12:02:37.883Z,39
2023-02-15T12:04:18.377Z,42
2023-02-15T12:05:58.790Z,38
2023-02-15T12:07:39.105Z,35
2023-02-15T12:09:20.245Z,36
2023-02-15T12:11:00.285Z,38
2023-02-15T12:12:40.070Z,52
2023-02-15T12:14:20.550Z,54
2023-02-15T12:16:01.108Z,55
2023-02-15T12:17:41.507Z,84
2023-02-15T12:19:21.885Z,56
2023-02-15T12:21:02.605Z,47
2023-02-15T12:22:42.799Z,39
2023-02-15T12:24:23.228Z,45
2023-02-15T12:26:03.719Z,80
2023-02-15T12:27:44.121Z,85
2023-02-15T12:29:24.646Z,99
2023-02-15T12:31:05.619Z,99
2023-02-15T12:32:45.590Z,65
2023-02-15T12:34:25.881Z,86
2023-02-15T12:36:06.194Z,99
2023-02-15T12:37:46.640Z,99
2023-02-15T12:39:27.101Z,99
2023-02-15T12:41:07.628Z,99
2023-02-15T12:42:47.980Z,99
2023-02-15T12:44:28.410Z,98
2023-02-15T12:46:08.875Z,97
2023-02-15T12:47:49.419Z,93
2023-02-15T12:49:29.975Z,95
2023-02-15T12:51:10.928Z,96
2023-02-15T12:52:50.842Z,93
2023-02-15T12:54:31.392Z,94
2023-02-15T12:56:11.855Z,90
2023-02-15T12:57:52.283Z,84
2023-02-15T12:59:32.875Z,91
2023-02-15T13:01:13.438Z,89
2023-02-15T13:02:53.769Z,92
2023-02-15T13:04:34.247Z,91
2023-02-15T13:06:14.753Z,89
2023-02-15T13:07:55.224Z,86
2023-02-15T13:09:35.757Z,86
2023-02-15T13:11:16.228Z,87
2023-02-15T13:12:56.857Z,88
2023-02-15T13:14:37.209Z,87
2023-02-15T13:16:17.780Z,85
2023-02-15T13:17:58.296Z,86
2023-02-15T13:19:38.793Z,82
2023-02-15T13:21:19.194Z,85
2023-02-15T13:22:59.706Z,85
2023-02-15T13:24:40.134Z,84
2023-02-15T13:26:20.630Z,84
2023-02-15T13:28:01.157Z,84
2023-02-15T13:29:41.557Z,85
2023-02-15T13:31:22.123Z,78
2023-02-15T13:33:02.515Z,69
2023-02-15T13:34:43.009Z,77
2023-02-15T13:36:23.574Z,79
2023-02-15T13:38:04.064Z,78
2023-02-15T13:39:44.344Z,77
2023-02-15T13:41:24.899Z,76
2023-02-15T13:43:05.311Z,75
2023-02-15T13:44:45.744Z,63
2023-02-15T13:46:26.322Z,65
2023-02-15T13:48:06.669Z,65
2023-02-15T13:49:47.184Z,61
2023-02-15T13:51:27.698Z,60
2023-02-15T13:53:08.199Z,60
2023-02-15T13:54:48.628Z,63
2023-02-15T13:56:29.086Z,66
2023-02-15T13:58:09.586Z,64
2023-02-15T13:59:50.100Z,64
2023-02-15T14:01:30.782Z,72
2023-02-15T14:03:11.149Z,75
2023-02-15T14:04:51.526Z,72
2023-02-15T14:06:32.069Z,72
2023-02-15T14:08:14.512Z,72
2023-02-15T14:08:14.546Z,72
2023-02-15T14:08:14.556Z,72
2023-02-15T14:09:52.903Z,69
2023-02-15T14:11:33.196Z,68
2023-02-15T14:13:13.592Z,62
2023-02-15T14:14:54.017Z,55
2023-02-15T14:16:34.902Z,56
2023-02-15T14:18:14.957Z,60
2023-02-15T14:19:55.466Z,63
2023-02-15T14:21:35.886Z,59
2023-02-15T14:23:16.375Z,57
2023-02-15T14:24:56.862Z,54
2023-02-15T14:26:37.389Z,52
2023-02-15T14:28:17.940Z,49
2023-02-15T14:29:58.497Z,44
2023-02-15T14:31:38.912Z,41
2023-02-15T14:33:19.231Z,40
2023-02-15T14:34:59.961Z,38
2023-02-15T14:36:40.170Z,35
2023-02-15T14:38:20.627Z,31
2023-02-15T14:40:01.152Z,29
2023-02-15T14:41:41.630Z,28
2023-02-15T14:43:22.066Z,36
2023-02-15T14:45:02.495Z,38
2023-02-15T14:46:42.975Z,38
2023-02-15T14:48:23.503Z,38
2023-02-15T14:50:04.131Z,41
2023-02-15T14:51:44.406Z,39
2023-02-15T14:53:24.943Z,38
2023-02-15T14:55:05.548Z,36
2023-02-15T14:56:46.156Z,36
2023-02-15T14:58:26.523Z,36
2023-02-15T15:00:06.972Z,35
2023-02-15T15:01:47.448Z,35
2023-02-15T15:03:27.947Z,35
2023-02-15T15:05:08.464Z,35
2023-02-15T15:06:48.950Z,34
2023-02-15T15:08:29.385Z,34
2023-02-15T15:10:10.082Z,34
2023-02-15T15:11:50.345Z,33
2023-02-15T15:13:30.819Z,33
2023-02-15T15:15:11.422Z,31
2023-02-15T15:16:51.847Z,31
2023-02-15T15:18:32.291Z,30
2023-02-15T15:20:12.764Z,30
2023-02-15T15:21:53.249Z,30
2023-02-15T15:23:33.680Z,29
2023-02-15T15:25:14.191Z,29
2023-02-15T15:26:54.586Z,28
2023-02-15T15:28:35.228Z,27
2023-02-15T15:30:15.693Z,31
2023-02-15T15:31:56.110Z,31
2023-02-15T15:35:16.922Z,29
2023-02-15T15:36:57.419Z,26
2023-02-15T15:38:37.903Z,24
2023-02-15T15:40:18.512Z,16
2023-02-15T15:42:02.066Z,11
2023-02-15T15:43:39.475Z,10
2023-02-15T15:45:19.975Z,9
2023-02-15T15:47:00.584Z,9
2023-02-15T15:48:40.961Z,8
2023-02-15T15:50:21.434Z,8
2023-02-15T15:52:01.902Z,8
2023-02-15T15:53:42.339Z,7
2023-02-15T15:55:22.780Z,7
2023-02-15T15:57:03.232Z,6
2023-02-15T15:58:43.736Z,6
2023-02-15T16:00:24.093Z,5
2023-02-15T16:02:04.618Z,5
2023-02-15T16:03:45.023Z,4
2023-02-15T16:05:25.488Z,4
2023-02-15T16:07:05.891Z,4
2023-02-15T16:08:46.305Z,3
2023-02-15T16:10:26.830Z,3
2023-02-15T16:12:07.140Z,3
2023-02-15T16:13:47.595Z,3
2023-02-15T16:15:27.936Z,2
2023-02-15T16:17:08.357Z,2
2023-02-15T16:18:48.704Z,2
2023-02-15T16:20:29.075Z,1
2023-02-15T16:22:12.568Z,1
2023-02-15T16:23:50.028Z,1
2023-02-15T16:25:30.507Z,0
2023-02-15T16:27:10.987Z,0
2023-02-15T16:28:51.414Z,0
2023-02-15T16:30:31.988Z,0
2023-02-15T16:32:12.398Z,0
2023-02-15T16:33:52.739Z,0
2023-02-15T16:35:33.288Z,0
2023-02-15T16:37:13.794Z,0
2023-02-15T16:38:54.290Z,0
2023-02-15T16:40:34.766Z,0
2023-02-15T16:42:15.219Z,0
2023-02-15T16:43:55.715Z,0
2023-02-15T16:45:36.132Z,0
2023-02-15T16:47:16.595Z,0
2023-02-15T16:48:57.095Z,0
2023-02-15T16:50:37.578Z,0
2023-02-15T16:52:18.044Z,0
2023-02-15T16:53:58.527Z,0
2023-02-15T16:55:39.017Z,0
2023-02-15T16:57:19.469Z,0
2023-02-15T16:58:59.997Z,0
2023-02-15T17:00:40.447Z,0
2023-02-15T17:02:49.463Z,0
2023-02-15T17:04:01.311Z,0
2023-02-15T17:05:41.757Z,0
2023-02-15T17:07:22.215Z,0
2023-02-15T17:09:02.608Z,0
2023-02-15T17:10:43.085Z,0
2023-02-15T17:12:23.524Z,0
2023-02-15T17:14:03.946Z,0
2023-02-15T17:15:44.419Z,0
2023-02-15T17:17:24.886Z,0
2023-02-15T17:19:05.367Z,0
2023-02-15T17:20:45.913Z,0
2023-02-15T17:22:26.420Z,0
2023-02-15T17:24:07.028Z,0
2023-02-15T17:25:47.551Z,0
2023-02-15T17:27:28.093Z,0
2023-02-15T17:29:08.530Z,0
2023-02-15T17:30:48.965Z,0
2023-02-15T17:32:29.678Z,0
2023-02-15T17:34:10.014Z,0
2023-02-15T17:35:50.450Z,0
2023-02-15T17:37:30.948Z,0
2023-02-15T17:39:12.355Z,0
2023-02-15T17:40:51.761Z,0
2023-02-15T17:42:32.128Z,0
2023-02-15T17:44:12.520Z,0
2023-02-15T17:45:53.043Z,0
2023-02-15T17:47:33.282Z,0
2023-02-15T17:49:13.732Z,0
2023-02-15T17:50:54.113Z,0
2023-02-15T17:52:34.506Z,0
2023-02-15T17:54:14.958Z,0
2023-02-15T17:55:55.434Z,0
2023-02-15T17:57:35.900Z,0
2023-02-15T17:59:16.342Z,0
2023-02-15T18:00:56.848Z,0
2023-02-15T18:02:37.229Z,0
2023-02-15T18:04:17.734Z,0
2023-02-15T18:05:58.177Z,0
2023-02-15T18:07:38.651Z,0
2023-02-15T18:09:19.161Z,0
2023-02-15T18:10:59.501Z,0
2023-02-15T18:12:39.806Z,0
2023-02-15T18:14:20.336Z,0
2023-02-15T18:16:00.803Z,0
2023-02-15T18:17:41.243Z,0
2023-02-15T18:19:21.709Z,0
2023-02-15T18:21:02.562Z,0
2023-02-15T18:22:42.683Z,0
2023-02-15T18:24:23.198Z,0
2023-02-15T18:26:03.730Z,0
2023-02-15T18:27:44.149Z,0
2023-02-15T18:29:24.524Z,0
2023-02-15T18:31:05.444Z,0
2023-02-15T18:32:45.373Z,0
2023-02-15T18:34:25.667Z,0
2023-02-15T18:36:06.021Z,0
2023-02-15T18:37:46.530Z,0
2023-02-15T18:39:26.990Z,0
2023-02-15T18:41:07.484Z,0
2023-02-15T18:42:48.035Z,0
2023-02-15T18:44:28.409Z,0
2023-02-15T18:46:08.854Z,0
2023-02-15T18:47:49.313Z,0
2023-02-15T18:49:29.757Z,0
2023-02-15T18:51:10.167Z,0
2023-02-15T18:52:50.640Z,0
2023-02-15T18:54:31.064Z,0
2023-02-15T18:56:11.530Z,0
2023-02-15T18:57:51.892Z,0
2023-02-15T18:59:32.373Z,0
2023-02-15T19:01:12.901Z,0
2023-02-15T19:02:53.326Z,0
2023-02-15T19:04:33.820Z,0
2023-02-15T19:06:14.283Z,0
2023-02-15T19:07:54.734Z,0
2023-02-15T19:09:35.130Z,0
2023-02-15T19:11:15.615Z,0
2023-02-15T19:12:56.158Z,0
2023-02-15T19:14:36.585Z,0
2023-02-15T19:16:17.052Z,0
2023-02-15T19:17:57.460Z,0
2023-02-15T19:19:37.866Z,0
2023-02-15T19:21:18.381Z,0
2023-02-15T19:22:58.815Z,0
2023-02-15T19:24:39.299Z,0
2023-02-15T19:26:19.788Z,0
2023-02-15T19:28:00.227Z,0
2023-02-15T19:29:40.767Z,0
2023-02-15T19:31:21.399Z,0
2023-02-15T19:33:01.719Z,0
2023-02-15T19:34:43.835Z,0
2023-02-15T19:36:22.505Z,0
2023-02-15T19:38:06.096Z,0
2023-02-15T19:39:43.502Z,0
2023-02-15T19:41:23.907Z,0
2023-02-15T19:43:04.456Z,0
2023-02-15T19:46:25.437Z,0
2023-02-15T19:48:05.832Z,0
2023-02-15T19:49:46.231Z,0
2023-02-15T19:51:26.598Z,0
2023-02-15T19:53:07.068Z,0
2023-02-15T19:54:47.552Z,0
2023-02-15T19:56:27.998Z,0
2023-02-15T19:58:08.513Z,0
2023-02-15T19:59:48.945Z,0
2023-02-15T20:01:32.546Z,0
2023-02-15T20:03:09.923Z,0
2023-02-15T20:04:50.425Z,0
2023-02-15T20:06:30.890Z,0
2023-02-15T20:08:11.307Z,0
2023-02-15T20:09:51.790Z,0
2023-02-15T20:11:32.267Z,0
2023-02-15T20:13:12.608Z,0
2023-02-15T20:14:52.978Z,0
2023-02-15T20:16:33.432Z,0
2023-02-15T20:18:13.896Z,0
2023-02-15T20:19:54.326Z,0
2023-02-15T20:21:34.870Z,0
2023-02-15T20:23:15.365Z,0
2023-02-15T20:24:55.762Z,0
2023-02-15T20:26:36.219Z,0
2023-02-15T20:28:16.697Z,0
2023-02-15T20:29:57.256Z,0
2023-02-15T20:31:37.749Z,0
2023-02-15T20:33:18.083Z,0
2023-02-15T20:34:58.521Z,0
2023-02-15T20:36:38.898Z,0
2023-02-15T20:38:19.252Z,0
2023-02-15T20:39:59.583Z,0
2023-02-15T20:41:39.868Z,0
2023-02-15T20:43:20.232Z,0
2023-02-15T20:45:00.695Z,0
2023-02-15T20:46:41.223Z,0
2023-02-15T20:48:21.502Z,0
2023-02-15T20:50:02.018Z,0
2023-02-15T20:51:42.528Z,0
2023-02-15T20:53:23.036Z,0
2023-02-15T20:55:03.512Z,0
2023-02-15T20:56:44.036Z,0
2023-02-15T20:58:24.478Z,0
2023-02-15T21:00:05.004Z,0
2023-02-15T21:01:45.618Z,0
2023-02-15T21:03:29.043Z,0
2023-02-15T21:05:06.308Z,0
2023-02-15T21:06:46.612Z,0
2023-02-15T21:08:27.058Z,0
2023-02-15T21:10:07.487Z,0
2023-02-15T21:11:48.016Z,0
2023-02-15T21:13:28.526Z,0
2023-02-15T21:15:09.003Z,0
2023-02-15T21:16:49.489Z,0
2023-02-15T21:18:31.116Z,0
2023-02-15T21:20:10.512Z,0
2023-02-15T21:21:50.974Z,0
2023-02-15T21:23:31.364Z,0
2023-02-15T21:25:11.838Z,0
2023-02-15T21:26:52.387Z,0
2023-02-15T21:28:32.703Z,0
2023-02-15T21:30:13.153Z,0
2023-02-15T21:31:53.805Z,0
2023-02-15T21:33:34.208Z,0
2023-02-15T21:35:14.768Z,0
2023-02-15T21:36:55.283Z,0
2023-02-15T21:38:35.798Z,0
2023-02-15T21:40:16.359Z,0
2023-02-15T21:41:56.849Z,0
2023-02-15T21:43:37.259Z,0
2023-02-15T21:45:17.777Z,0
2023-02-15T21:46:58.200Z,0
2023-02-15T21:48:38.672Z,0
2023-02-15T21:50:19.156Z,0
2023-02-15T21:51:59.643Z,0
2023-02-15T21:53:40.120Z,0
2023-02-15T21:55:20.642Z,0
2023-02-15T21:57:01.193Z,0
2023-02-15T21:58:41.600Z,0
2023-02-15T22:00:22.073Z,0
2023-02-15T22:02:02.523Z,0
2023-02-15T22:03:42.988Z,0
2023-02-15T22:05:23.376Z,0
2023-02-15T22:07:03.818Z,0
2023-02-15T22:08:44.208Z,0
2023-02-15T22:10:24.500Z,0
2023-02-15T22:12:04.814Z,0
2023-02-15T22:13:45.076Z,0
2023-02-15T22:15:25.392Z,0
2023-02-15T22:17:05.729Z,0
2023-02-15T22:18:46.047Z,0
2023-02-15T22:20:26.324Z,0
2023-02-15T22:22:06.623Z,0
2023-02-15T22:23:47.314Z,0
2023-02-15T22:25:27.569Z,0
2023-02-15T22:27:08.009Z,0
2023-02-15T22:28:48.488Z,0
2023-02-15T22:30:29.068Z,0
2023-02-15T22:32:09.651Z,0
2023-02-15T22:33:49.945Z,0
2023-02-15T22:35:30.294Z,0
2023-02-15T22:37:10.762Z,0
2023-02-15T22:38:51.290Z,0
2023-02-15T22:40:31.666Z,0
2023-02-15T22:42:12.185Z,0
2023-02-15T22:43:52.504Z,0
2023-02-15T22:45:33.005Z,0
2023-02-15T22:47:13.373Z,0
2023-02-15T22:48:53.722Z,0
2023-02-15T22:50:35.849Z,0
2023-02-15T22:52:14.660Z,0
2023-02-15T22:53:55.039Z,0
2023-02-15T22:55:35.534Z,0
2023-02-15T22:57:15.968Z,0
2023-02-15T22:58:56.452Z,0
2023-02-15T23:00:36.889Z,0
2023-02-15T23:02:17.413Z,0
2023-02-15T23:03:58.037Z,0
2023-02-15T23:05:38.567Z,0
2023-02-15T23:07:18.913Z,0
2023-02-15T23:08:59.299Z,0
2023-02-15T23:10:39.733Z,0
2023-02-15T23:12:20.204Z,0
2023-02-15T23:14:00.697Z,0
2023-02-15T23:15:41.259Z,0
2023-02-15T23:17:21.712Z,0
2023-02-15T23:19:02.168Z,0
2023-02-15T23:20:42.655Z,0
2023-02-15T23:22:23.224Z,0
2023-02-15T23:24:03.665Z,0
2023-02-15T23:25:44.135Z,0
2023-02-15T23:27:24.582Z,0
2023-02-15T23:29:05.069Z,0
2023-02-15T23:30:45.468Z,0
2023-02-15T23:32:25.953Z,0
2023-02-15T23:34:06.367Z,0
2023-02-15T23:35:46.801Z,0
2023-02-15T23:37:27.144Z,0
2023-02-15T23:39:07.624Z,0
2023-02-15T23:40:48.112Z,0
2023-02-15T23:42:28.576Z,0
2023-02-15T23:44:08.990Z,0
2023-02-15T23:45:49.531Z,0
2023-02-15T23:47:29.971Z,0
2023-02-15T23:49:10.515Z,0
2023-02-15T23:50:50.967Z,0
2023-02-15T23:52:31.387Z,0
2023-02-15T23:54:11.813Z,0
2023-02-15T23:55:52.279Z,0
2023-02-15T23:57:32.650Z,0
2023-02-15T23:59:13.167Z,0
